sensor_id;sensor_type;location;lat;lon;timestamp;pressure;altitude;pressure_sealevel;temperature;humidity
52625;BME280;38519;52.540;13.410;2023-05-01T00:01:13;101226.69;;;7.01;82.38
52625;BME280;38519;52.540;13.410;2023-05-01T00:03:38;101229.22;;;6.82;84.11
52625;BME280;38519;52.540;13.410;2023-05-01T00:06:03;101225.56;;;6.80;85.49
52625;BME280;38519;52.540;13.410;2023-05-01T00:08:29;101223.00;;;6.71;85.12
52625;BME280;38519;52.540;13.410;2023-05-01T00:10:55;101225.59;;;6.71;85.68
52625;BME280;38519;52.540;13.410;2023-05-01T00:13:22;101221.19;;;6.61;85.65
52625;BME280;38519;52.540;13.410;2023-05-01T00:15:48;101219.97;;;6.66;84.32
52625;BME280;38519;52.540;13.410;2023-05-01T00:18:14;101225.03;;;6.56;85.18
52625;BME280;38519;52.540;13.410;2023-05-01T00:20:39;101223.06;;;6.53;86.31
52625;BME280;38519;52.540;13.410;2023-05-01T00:23:04;101224.88;;;6.54;86.43
52625;BME280;38519;52.540;13.410;2023-05-01T00:25:30;101224.13;;;6.55;85.06
52625;BME280;38519;52.540;13.410;2023-05-01T00:27:56;101221.81;;;6.50;85.85
52625;BME280;38519;52.540;13.410;2023-05-01T00:30:23;101220.78;;;6.48;86.68
52625;BME280;38519;52.540;13.410;2023-05-01T00:32:49;101213.19;;;6.41;87.18
52625;BME280;38519;52.540;13.410;2023-05-01T00:35:14;101214.38;;;6.44;86.71
52625;BME280;38519;52.540;13.410;2023-05-01T00:37:40;101208.09;;;6.51;87.34
52625;BME280;38519;52.540;13.410;2023-05-01T00:40:06;101213.88;;;6.48;86.10
52625;BME280;38519;52.540;13.410;2023-05-01T00:42:35;101211.28;;;6.48;85.64
52625;BME280;38519;52.540;13.410;2023-05-01T00:45:01;101209.16;;;6.53;84.81
52625;BME280;38519;52.540;13.410;2023-05-01T00:47:26;101212.09;;;6.47;84.26
52625;BME280;38519;52.540;13.410;2023-05-01T00:49:51;101198.47;;;6.50;84.99
52625;BME280;38519;52.540;13.410;2023-05-01T00:52:18;101206.75;;;6.46;84.99
52625;BME280;38519;52.540;13.410;2023-05-01T00:54:43;101198.97;;;6.46;85.00
52625;BME280;38519;52.540;13.410;2023-05-01T00:57:09;101196.66;;;6.49;84.62
52625;BME280;38519;52.540;13.410;2023-05-01T00:59:34;101197.56;;;6.49;83.84
52625;BME280;38519;52.540;13.410;2023-05-01T01:02:00;101191.94;;;6.45;83.79
52625;BME280;38519;52.540;13.410;2023-05-01T01:04:25;101183.09;;;6.43;84.01
52625;BME280;38519;52.540;13.410;2023-05-01T01:14:49;101191.81;;;6.26;86.37
52625;BME280;38519;52.540;13.410;2023-05-01T01:17:21;101185.28;;;6.20;86.47
52625;BME280;38519;52.540;13.410;2023-05-01T01:22:32;101180.88;;;6.11;87.97
52625;BME280;38519;52.540;13.410;2023-05-01T01:25:05;101177.69;;;6.13;86.79
52625;BME280;38519;52.540;13.410;2023-05-01T01:27:38;101178.59;;;6.14;86.68
52625;BME280;38519;52.540;13.410;2023-05-01T01:35:18;101169.59;;;6.10;86.89
52625;BME280;38519;52.540;13.410;2023-05-01T01:37:49;101175.22;;;6.06;88.10
52625;BME280;38519;52.540;13.410;2023-05-01T01:40:17;101166.06;;;6.10;88.07
52625;BME280;38519;52.540;13.410;2023-05-01T01:42:48;101171.09;;;6.08;87.54
52625;BME280;38519;52.540;13.410;2023-05-01T01:45:14;101170.84;;;6.05;88.29
52625;BME280;38519;52.540;13.410;2023-05-01T01:47:43;101171.41;;;6.11;87.68
52625;BME280;38519;52.540;13.410;2023-05-01T01:50:09;101170.53;;;6.02;88.28
52625;BME280;38519;52.540;13.410;2023-05-01T01:52:36;101169.28;;;6.07;88.30
52625;BME280;38519;52.540;13.410;2023-05-01T01:55:04;101162.88;;;6.12;87.78
52625;BME280;38519;52.540;13.410;2023-05-01T01:57:30;101155.69;;;6.10;87.42
52625;BME280;38519;52.540;13.410;2023-05-01T01:59:56;101160.91;;;6.01;88.29
52625;BME280;38519;52.540;13.410;2023-05-01T02:02:21;101158.78;;;5.97;88.87
52625;BME280;38519;52.540;13.410;2023-05-01T02:04:47;101155.84;;;5.94;90.03
52625;BME280;38519;52.540;13.410;2023-05-01T02:07:13;101148.69;;;6.00;89.56
52625;BME280;38519;52.540;13.410;2023-05-01T02:09:41;101148.56;;;5.98;89.95
52625;BME280;38519;52.540;13.410;2023-05-01T02:12:08;101144.72;;;5.95;90.18
52625;BME280;38519;52.540;13.410;2023-05-01T02:14:35;101142.78;;;6.01;89.46
52625;BME280;38519;52.540;13.410;2023-05-01T02:17:01;101144.59;;;6.02;88.01
52625;BME280;38519;52.540;13.410;2023-05-01T02:19:27;101140.63;;;5.97;88.42
52625;BME280;38519;52.540;13.410;2023-05-01T02:21:52;101140.03;;;5.91;87.54
52625;BME280;38519;52.540;13.410;2023-05-01T02:24:20;101144.75;;;5.86;88.54
52625;BME280;38519;52.540;13.410;2023-05-01T02:26:48;101132.69;;;5.87;88.07
52625;BME280;38519;52.540;13.410;2023-05-01T02:29:14;101135.59;;;5.90;87.77
52625;BME280;38519;52.540;13.410;2023-05-01T02:31:39;101134.53;;;5.88;87.84
52625;BME280;38519;52.540;13.410;2023-05-01T02:34:04;101134.97;;;5.83;87.77
52625;BME280;38519;52.540;13.410;2023-05-01T02:36:29;101130.41;;;5.81;87.75
52625;BME280;38519;52.540;13.410;2023-05-01T02:38:57;101126.59;;;5.77;87.09
52625;BME280;38519;52.540;13.410;2023-05-01T02:41:22;101128.13;;;5.75;86.91
52625;BME280;38519;52.540;13.410;2023-05-01T02:43:52;101119.91;;;5.71;86.71
52625;BME280;38519;52.540;13.410;2023-05-01T02:46:19;101114.88;;;5.72;86.08
52625;BME280;38519;52.540;13.410;2023-05-01T02:48:45;101117.16;;;5.69;86.26
52625;BME280;38519;52.540;13.410;2023-05-01T02:51:12;101112.28;;;5.72;85.35
52625;BME280;38519;52.540;13.410;2023-05-01T02:53:37;101116.25;;;5.69;86.16
52625;BME280;38519;52.540;13.410;2023-05-01T02:56:04;101106.50;;;5.66;85.96
52625;BME280;38519;52.540;13.410;2023-05-01T02:58:29;101107.84;;;5.71;84.83
52625;BME280;38519;52.540;13.410;2023-05-01T03:00:56;101102.38;;;5.68;84.54
52625;BME280;38519;52.540;13.410;2023-05-01T03:03:21;101102.22;;;5.66;85.74
52625;BME280;38519;52.540;13.410;2023-05-01T03:05:47;101100.25;;;5.64;85.27
52625;BME280;38519;52.540;13.410;2023-05-01T03:08:12;101093.53;;;5.66;84.33
52625;BME280;38519;52.540;13.410;2023-05-01T03:10:40;101090.94;;;5.66;84.80
52625;BME280;38519;52.540;13.410;2023-05-01T03:13:08;101087.91;;;5.61;84.27
52625;BME280;38519;52.540;13.410;2023-05-01T03:15:35;101080.59;;;5.57;84.85
52625;BME280;38519;52.540;13.410;2023-05-01T03:18:00;101079.97;;;5.60;84.43
52625;BME280;38519;52.540;13.410;2023-05-01T03:20:25;101078.31;;;5.60;84.60
52625;BME280;38519;52.540;13.410;2023-05-01T03:22:50;101072.84;;;5.57;84.73
52625;BME280;38519;52.540;13.410;2023-05-01T03:25:16;101078.78;;;5.47;84.71
52625;BME280;38519;52.540;13.410;2023-05-01T03:27:41;101080.91;;;5.43;85.13
52625;BME280;38519;52.540;13.410;2023-05-01T03:30:07;101075.59;;;5.41;84.80
52625;BME280;38519;52.540;13.410;2023-05-01T03:32:35;101065.97;;;5.40;85.03
52625;BME280;38519;52.540;13.410;2023-05-01T03:35:01;101069.47;;;5.41;85.22
52625;BME280;38519;52.540;13.410;2023-05-01T03:37:26;101070.25;;;5.40;85.55
52625;BME280;38519;52.540;13.410;2023-05-01T03:39:52;101076.50;;;5.33;85.51
52625;BME280;38519;52.540;13.410;2023-05-01T03:42:17;101072.38;;;5.35;85.58
52625;BME280;38519;52.540;13.410;2023-05-01T03:44:43;101063.56;;;5.33;85.45
52625;BME280;38519;52.540;13.410;2023-05-01T03:47:08;101069.78;;;5.35;85.50
52625;BME280;38519;52.540;13.410;2023-05-01T03:49:34;101063.25;;;5.30;85.87
52625;BME280;38519;52.540;13.410;2023-05-01T03:52:00;101071.63;;;5.27;85.92
52625;BME280;38519;52.540;13.410;2023-05-01T03:54:25;101075.56;;;5.33;85.92
52625;BME280;38519;52.540;13.410;2023-05-01T03:56:50;101070.25;;;5.31;86.39
52625;BME280;38519;52.540;13.410;2023-05-01T03:59:16;101071.78;;;5.38;85.81
52625;BME280;38519;52.540;13.410;2023-05-01T04:01:42;101066.75;;;5.39;85.25
52625;BME280;38519;52.540;13.410;2023-05-01T04:04:08;101067.81;;;5.41;85.31
52625;BME280;38519;52.540;13.410;2023-05-01T04:06:34;101062.94;;;5.44;85.75
52625;BME280;38519;52.540;13.410;2023-05-01T04:09:00;101064.44;;;5.42;85.25
52625;BME280;38519;52.540;13.410;2023-05-01T04:11:25;101062.50;;;5.40;85.31
52625;BME280;38519;52.540;13.410;2023-05-01T04:13:51;101056.69;;;5.42;84.96
52625;BME280;38519;52.540;13.410;2023-05-01T04:16:16;101063.53;;;5.42;84.76
52625;BME280;38519;52.540;13.410;2023-05-01T04:18:42;101063.53;;;5.42;84.89
52625;BME280;38519;52.540;13.410;2023-05-01T04:21:07;101057.47;;;5.41;84.90
52625;BME280;38519;52.540;13.410;2023-05-01T04:23:32;101060.50;;;5.46;84.96
52625;BME280;38519;52.540;13.410;2023-05-01T04:25:57;101063.25;;;5.47;83.57
52625;BME280;38519;52.540;13.410;2023-05-01T04:28:23;101072.22;;;5.51;84.08
52625;BME280;38519;52.540;13.410;2023-05-01T04:30:48;101066.56;;;5.55;83.54
52625;BME280;38519;52.540;13.410;2023-05-01T04:33:13;101059.13;;;5.50;82.76
52625;BME280;38519;52.540;13.410;2023-05-01T04:35:39;101058.38;;;5.51;83.97
52625;BME280;38519;52.540;13.410;2023-05-01T04:38:05;101051.50;;;5.51;83.41
52625;BME280;38519;52.540;13.410;2023-05-01T04:40:31;101057.59;;;5.52;83.95
52625;BME280;38519;52.540;13.410;2023-05-01T04:42:56;101043.09;;;5.54;83.43
52625;BME280;38519;52.540;13.410;2023-05-01T04:45:21;101044.50;;;5.59;83.22
52625;BME280;38519;52.540;13.410;2023-05-01T04:47:46;101043.41;;;5.57;83.00
52625;BME280;38519;52.540;13.410;2023-05-01T04:50:12;101041.13;;;5.60;82.82
52625;BME280;38519;52.540;13.410;2023-05-01T04:52:37;101039.91;;;5.65;82.35
52625;BME280;38519;52.540;13.410;2023-05-01T04:55:02;101037.94;;;5.62;82.74
52625;BME280;38519;52.540;13.410;2023-05-01T04:57:28;101043.41;;;5.65;82.43
52625;BME280;38519;52.540;13.410;2023-05-01T04:59:53;101041.13;;;5.69;81.76
52625;BME280;38519;52.540;13.410;2023-05-01T05:02:18;101041.41;;;5.72;81.96
52625;BME280;38519;52.540;13.410;2023-05-01T05:04:43;101045.22;;;5.75;81.47
52625;BME280;38519;52.540;13.410;2023-05-01T05:07:09;101040.03;;;5.75;81.03
52625;BME280;38519;52.540;13.410;2023-05-01T05:09:34;101043.38;;;5.74;81.06
52625;BME280;38519;52.540;13.410;2023-05-01T05:11:59;101045.50;;;5.78;79.96
52625;BME280;38519;52.540;13.410;2023-05-01T05:14:25;101048.56;;;5.83;80.23
52625;BME280;38519;52.540;13.410;2023-05-01T05:16:50;101040.88;;;5.93;79.37
52625;BME280;38519;52.540;13.410;2023-05-01T05:19:17;101038.16;;;5.92;79.73
52625;BME280;38519;52.540;13.410;2023-05-01T05:21:42;101036.19;;;5.98;79.12
52625;BME280;38519;52.540;13.410;2023-05-01T05:24:08;101033.91;;;6.01;78.50
52625;BME280;38519;52.540;13.410;2023-05-01T05:26:34;101031.31;;;6.01;78.63
52625;BME280;38519;52.540;13.410;2023-05-01T05:28:59;101026.72;;;6.07;78.29
52625;BME280;38519;52.540;13.410;2023-05-01T05:31:24;101025.47;;;6.12;78.59
52625;BME280;38519;52.540;13.410;2023-05-01T05:33:49;101020.06;;;6.19;77.89
52625;BME280;38519;52.540;13.410;2023-05-01T05:36:15;101022.34;;;6.25;78.02
52625;BME280;38519;52.540;13.410;2023-05-01T05:38:40;101015.16;;;6.31;77.52
52625;BME280;38519;52.540;13.410;2023-05-01T05:41:05;101016.34;;;6.35;77.35
52625;BME280;38519;52.540;13.410;2023-05-01T05:43:30;101015.53;;;6.45;76.33
52625;BME280;38519;52.540;13.410;2023-05-01T05:45:57;101017.81;;;6.50;75.89
52625;BME280;38519;52.540;13.410;2023-05-01T05:48:22;101010.47;;;6.55;75.14
52625;BME280;38519;52.540;13.410;2023-05-01T05:50:47;101011.44;;;6.66;74.75
52625;BME280;38519;52.540;13.410;2023-05-01T05:53:16;101007.63;;;6.71;73.40
52625;BME280;38519;52.540;13.410;2023-05-01T05:55:41;101010.56;;;6.84;73.64
52625;BME280;38519;52.540;13.410;2023-05-01T05:58:07;100996.78;;;6.85;73.03
52625;BME280;38519;52.540;13.410;2023-05-01T06:00:33;101007.88;;;6.93;72.54
52625;BME280;38519;52.540;13.410;2023-05-01T06:02:58;100997.16;;;6.99;72.71
52625;BME280;38519;52.540;13.410;2023-05-01T06:05:24;101001.50;;;7.08;72.06
52625;BME280;38519;52.540;13.410;2023-05-01T06:07:49;101002.34;;;7.18;71.11
52625;BME280;38519;52.540;13.410;2023-05-01T06:10:15;100993.16;;;7.21;70.07
52625;BME280;38519;52.540;13.410;2023-05-01T06:12:40;100992.91;;;7.28;69.32
52625;BME280;38519;52.540;13.410;2023-05-01T06:15:06;101004.94;;;7.37;69.39
52625;BME280;38519;52.540;13.410;2023-05-01T06:17:32;100996.63;;;7.41;68.87
52625;BME280;38519;52.540;13.410;2023-05-01T06:19:58;100999.91;;;7.48;69.24
52625;BME280;38519;52.540;13.410;2023-05-01T06:22:23;100999.81;;;7.57;68.74
52625;BME280;38519;52.540;13.410;2023-05-01T06:24:48;101004.69;;;7.73;67.63
52625;BME280;38519;52.540;13.410;2023-05-01T06:27:14;101005.50;;;7.82;67.66
52625;BME280;38519;52.540;13.410;2023-05-01T06:29:39;101002.31;;;7.95;67.48
52625;BME280;38519;52.540;13.410;2023-05-01T06:32:05;100999.22;;;7.99;66.95
52625;BME280;38519;52.540;13.410;2023-05-01T06:34:31;100994.03;;;8.10;66.55
52625;BME280;38519;52.540;13.410;2023-05-01T06:36:56;100996.63;;;8.20;65.57
52625;BME280;38519;52.540;13.410;2023-05-01T06:39:21;100994.56;;;8.26;65.21
52625;BME280;38519;52.540;13.410;2023-05-01T06:41:47;101001.53;;;8.46;65.37
52625;BME280;38519;52.540;13.410;2023-05-01T06:44:12;101001.94;;;8.61;64.41
52625;BME280;38519;52.540;13.410;2023-05-01T06:46:37;100997.88;;;8.85;63.36
52625;BME280;38519;52.540;13.410;2023-05-01T06:49:03;100990.69;;;9.03;63.46
52625;BME280;38519;52.540;13.410;2023-05-01T06:51:28;100997.31;;;9.20;62.77
52625;BME280;38519;52.540;13.410;2023-05-01T06:53:55;100989.75;;;9.13;62.22
52625;BME280;38519;52.540;13.410;2023-05-01T06:56:21;100991.53;;;9.35;62.03
52625;BME280;38519;52.540;13.410;2023-05-01T06:58:46;100994.81;;;9.32;61.62
52625;BME280;38519;52.540;13.410;2023-05-01T07:01:12;100995.38;;;9.50;60.86
52625;BME280;38519;52.540;13.410;2023-05-01T07:03:37;100993.09;;;9.43;60.58
52625;BME280;38519;52.540;13.410;2023-05-01T07:06:02;100998.00;;;9.50;60.60
52625;BME280;38519;52.540;13.410;2023-05-01T07:08:28;100989.53;;;9.53;60.81
52625;BME280;38519;52.540;13.410;2023-05-01T07:10:53;100986.41;;;9.57;60.52
52625;BME280;38519;52.540;13.410;2023-05-01T07:13:18;100990.19;;;9.82;60.23
52625;BME280;38519;52.540;13.410;2023-05-01T07:15:44;100990.13;;;9.93;59.67
52625;BME280;38519;52.540;13.410;2023-05-01T07:18:09;100982.72;;;10.09;59.05
52625;BME280;38519;52.540;13.410;2023-05-01T07:20:36;100977.75;;;10.12;58.84
52625;BME280;38519;52.540;13.410;2023-05-01T07:23:01;100982.31;;;10.15;58.49
52625;BME280;38519;52.540;13.410;2023-05-01T07:25:27;100986.97;;;10.41;57.82
52625;BME280;38519;52.540;13.410;2023-05-01T07:27:52;100974.44;;;10.59;57.85
52625;BME280;38519;52.540;13.410;2023-05-01T07:30:18;100977.84;;;10.58;57.51
52625;BME280;38519;52.540;13.410;2023-05-01T07:32:44;100975.59;;;10.63;56.87
52625;BME280;38519;52.540;13.410;2023-05-01T07:35:10;100974.84;;;10.75;56.63
52625;BME280;38519;52.540;13.410;2023-05-01T07:37:35;100957.94;;;10.82;56.31
52625;BME280;38519;52.540;13.410;2023-05-01T07:40:00;100964.28;;;10.86;56.14
52625;BME280;38519;52.540;13.410;2023-05-01T07:42:26;100958.72;;;10.93;55.95
52625;BME280;38519;52.540;13.410;2023-05-01T07:44:52;100963.19;;;11.18;55.46
52625;BME280;38519;52.540;13.410;2023-05-01T07:47:17;100951.59;;;11.26;55.09
52625;BME280;38519;52.540;13.410;2023-05-01T07:49:42;100952.28;;;11.35;54.74
52625;BME280;38519;52.540;13.410;2023-05-01T07:52:08;100953.47;;;11.52;54.63
52625;BME280;38519;52.540;13.410;2023-05-01T07:54:33;100949.53;;;11.57;54.53
52625;BME280;38519;52.540;13.410;2023-05-01T07:56:59;100950.75;;;11.62;54.47
52625;BME280;38519;52.540;13.410;2023-05-01T07:59:26;100951.66;;;11.63;54.03
52625;BME280;38519;52.540;13.410;2023-05-01T08:01:51;100943.88;;;11.76;54.07
52625;BME280;38519;52.540;13.410;2023-05-01T08:04:16;100936.03;;;11.76;53.57
52625;BME280;38519;52.540;13.410;2023-05-01T08:06:42;100937.81;;;11.89;53.74
52625;BME280;38519;52.540;13.410;2023-05-01T08:09:08;100934.09;;;11.97;53.67
52625;BME280;38519;52.540;13.410;2023-05-01T08:11:33;100936.09;;;12.01;53.14
52625;BME280;38519;52.540;13.410;2023-05-01T08:13:59;100931.97;;;12.17;53.15
52625;BME280;38519;52.540;13.410;2023-05-01T08:16:24;100936.06;;;12.13;52.25
52625;BME280;38519;52.540;13.410;2023-05-01T08:18:50;100930.94;;;12.40;51.90
52625;BME280;38519;52.540;13.410;2023-05-01T08:21:15;100927.31;;;12.51;51.72
52625;BME280;38519;52.540;13.410;2023-05-01T08:23:42;100921.00;;;12.61;51.16
52625;BME280;38519;52.540;13.410;2023-05-01T08:26:07;100930.41;;;12.71;50.48
52625;BME280;38519;52.540;13.410;2023-05-01T08:28:35;100929.81;;;12.75;50.13
52625;BME280;38519;52.540;13.410;2023-05-01T08:31:01;100926.19;;;12.86;49.64
52625;BME280;38519;52.540;13.410;2023-05-01T08:33:27;100930.13;;;12.93;49.36
52625;BME280;38519;52.540;13.410;2023-05-01T08:35:52;100924.72;;;13.17;49.16
52625;BME280;38519;52.540;13.410;2023-05-01T08:38:17;100928.31;;;13.19;48.75
52625;BME280;38519;52.540;13.410;2023-05-01T08:40:46;100921.47;;;13.21;48.83
52625;BME280;38519;52.540;13.410;2023-05-01T08:43:12;100922.28;;;13.20;48.41
52625;BME280;38519;52.540;13.410;2023-05-01T08:45:37;100925.41;;;13.27;48.63
52625;BME280;38519;52.540;13.410;2023-05-01T08:48:04;100914.63;;;13.36;48.40
52625;BME280;38519;52.540;13.410;2023-05-01T08:50:34;100915.44;;;13.35;47.90
52625;BME280;38519;52.540;13.410;2023-05-01T08:53:01;100905.41;;;13.56;48.04
52625;BME280;38519;52.540;13.410;2023-05-01T08:55:27;100906.41;;;13.72;47.69
52625;BME280;38519;52.540;13.410;2023-05-01T08:57:54;100896.28;;;13.78;47.08
52625;BME280;38519;52.540;13.410;2023-05-01T09:00:20;100898.38;;;13.83;46.89
52625;BME280;38519;52.540;13.410;2023-05-01T09:02:46;100901.84;;;13.82;46.82
52625;BME280;38519;52.540;13.410;2023-05-01T09:05:12;100898.81;;;13.76;47.00
52625;BME280;38519;52.540;13.410;2023-05-01T09:07:37;100884.78;;;13.76;46.94
52625;BME280;38519;52.540;13.410;2023-05-01T09:10:04;100887.53;;;13.77;46.21
52625;BME280;38519;52.540;13.410;2023-05-01T09:12:30;100882.91;;;13.88;45.88
52625;BME280;38519;52.540;13.410;2023-05-01T09:14:59;100877.47;;;13.85;44.57
52625;BME280;38519;52.540;13.410;2023-05-01T09:17:25;100858.31;;;14.01;44.58
52625;BME280;38519;52.540;13.410;2023-05-01T09:19:51;100860.50;;;13.93;45.47
52625;BME280;38519;52.540;13.410;2023-05-01T09:22:17;100859.56;;;13.93;45.26
52625;BME280;38519;52.540;13.410;2023-05-01T09:24:42;100861.78;;;14.00;45.74
52625;BME280;38519;52.540;13.410;2023-05-01T09:27:08;100854.53;;;14.11;45.58
52625;BME280;38519;52.540;13.410;2023-05-01T09:32:15;100853.50;;;14.52;45.77
52625;BME280;38519;52.540;13.410;2023-05-01T09:34:40;100847.66;;;14.71;44.99
52625;BME280;38519;52.540;13.410;2023-05-01T09:37:06;100843.38;;;14.73;44.94
52625;BME280;38519;52.540;13.410;2023-05-01T09:39:32;100843.81;;;14.81;44.79
52625;BME280;38519;52.540;13.410;2023-05-01T09:41:58;100838.25;;;15.06;45.27
52625;BME280;38519;52.540;13.410;2023-05-01T09:44:23;100830.69;;;14.81;45.01
52625;BME280;38519;52.540;13.410;2023-05-01T09:46:49;100822.81;;;15.12;44.80
52625;BME280;38519;52.540;13.410;2023-05-01T09:49:14;100820.13;;;14.96;45.11
52625;BME280;38519;52.540;13.410;2023-05-01T09:51:40;100824.41;;;15.25;44.70
52625;BME280;38519;52.540;13.410;2023-05-01T09:54:17;100822.16;;;15.16;45.00
52625;BME280;38519;52.540;13.410;2023-05-01T09:56:46;100819.56;;;15.01;45.67
52625;BME280;38519;52.540;13.410;2023-05-01T09:59:16;100809.16;;;14.88;46.02
52625;BME280;38519;52.540;13.410;2023-05-01T10:01:42;100803.75;;;15.16;45.71
52625;BME280;38519;52.540;13.410;2023-05-01T10:04:07;100813.81;;;15.40;45.10
52625;BME280;38519;52.540;13.410;2023-05-01T10:06:34;100816.13;;;15.50;45.20
52625;BME280;38519;52.540;13.410;2023-05-01T10:09:00;100803.63;;;15.46;45.58
52625;BME280;38519;52.540;13.410;2023-05-01T10:11:26;100808.56;;;15.73;44.77
52625;BME280;38519;52.540;13.410;2023-05-01T10:14:04;100807.53;;;15.86;44.81
52625;BME280;38519;52.540;13.410;2023-05-01T10:16:32;100791.03;;;15.57;45.45
52625;BME280;38519;52.540;13.410;2023-05-01T10:18:59;100797.50;;;15.78;45.08
52625;BME280;38519;52.540;13.410;2023-05-01T10:21:24;100784.06;;;15.57;45.66
52625;BME280;38519;52.540;13.410;2023-05-01T10:23:50;100789.75;;;15.65;45.90
52625;BME280;38519;52.540;13.410;2023-05-01T10:26:16;100791.06;;;15.73;45.87
52625;BME280;38519;52.540;13.410;2023-05-01T10:28:43;100782.59;;;15.79;46.18
52625;BME280;38519;52.540;13.410;2023-05-01T10:31:09;100791.63;;;15.84;45.45
52625;BME280;38519;52.540;13.410;2023-05-01T10:33:34;100781.78;;;15.63;45.85
52625;BME280;38519;52.540;13.410;2023-05-01T10:35:59;100779.81;;;15.92;45.40
52625;BME280;38519;52.540;13.410;2023-05-01T10:38:29;100775.03;;;16.19;45.00
52625;BME280;38519;52.540;13.410;2023-05-01T10:40:56;100773.50;;;16.07;45.07
52625;BME280;38519;52.540;13.410;2023-05-01T10:43:25;100771.28;;;16.32;44.80
52625;BME280;38519;52.540;13.410;2023-05-01T10:46:25;100756.50;;;16.52;44.38
52625;BME280;38519;52.540;13.410;2023-05-01T10:53:40;100750.09;;;16.13;45.32
52625;BME280;38519;52.540;13.410;2023-05-01T10:56:39;100749.00;;;16.26;45.10
52625;BME280;38519;52.540;13.410;2023-05-01T11:01:29;100733.72;;;16.72;44.60
52625;BME280;38519;52.540;13.410;2023-05-01T11:03:55;100729.09;;;17.04;44.43
52625;BME280;38519;52.540;13.410;2023-05-01T11:06:20;100723.22;;;16.90;44.55
52625;BME280;38519;52.540;13.410;2023-05-01T11:08:47;100723.03;;;17.25;43.45
52625;BME280;38519;52.540;13.410;2023-05-01T11:21:36;100704.34;;;16.11;47.05
52625;BME280;38519;52.540;13.410;2023-05-01T11:24:03;100700.81;;;15.92;46.94
52625;BME280;38519;52.540;13.410;2023-05-01T11:26:28;100697.09;;;15.89;46.84
52625;BME280;38519;52.540;13.410;2023-05-01T11:28:56;100683.22;;;16.09;46.07
52625;BME280;38519;52.540;13.410;2023-05-01T11:31:21;100686.00;;;16.30;45.70
52625;BME280;38519;52.540;13.410;2023-05-01T11:33:47;100680.78;;;16.68;44.29
52625;BME280;38519;52.540;13.410;2023-05-01T11:36:12;100680.53;;;16.81;44.35
52625;BME280;38519;52.540;13.410;2023-05-01T11:38:47;100672.25;;;16.91;43.75
52625;BME280;38519;52.540;13.410;2023-05-01T11:41:14;100671.00;;;17.03;44.04
52625;BME280;38519;52.540;13.410;2023-05-01T11:43:53;100664.75;;;17.20;44.08
52625;BME280;38519;52.540;13.410;2023-05-01T11:46:26;100666.66;;;17.63;43.57
52625;BME280;38519;52.540;13.410;2023-05-01T11:48:52;100658.03;;;18.08;42.78
52625;BME280;38519;52.540;13.410;2023-05-01T11:51:17;100666.50;;;18.43;42.36
52625;BME280;38519;52.540;13.410;2023-05-01T11:53:56;100662.59;;;18.33;42.54
52625;BME280;38519;52.540;13.410;2023-05-01T11:56:22;100655.41;;;17.68;44.09
52625;BME280;38519;52.540;13.410;2023-05-01T11:58:48;100655.38;;;18.29;43.43
52625;BME280;38519;52.540;13.410;2023-05-01T12:01:13;100652.03;;;17.91;44.18
52625;BME280;38519;52.540;13.410;2023-05-01T12:03:39;100646.28;;;17.80;44.05
52625;BME280;38519;52.540;13.410;2023-05-01T12:06:07;100644.72;;;18.28;44.23
52625;BME280;38519;52.540;13.410;2023-05-01T12:08:32;100639.06;;;18.40;43.15
52625;BME280;38519;52.540;13.410;2023-05-01T12:10:58;100633.97;;;18.46;42.46
52625;BME280;38519;52.540;13.410;2023-05-01T12:13:23;100641.91;;;18.23;42.76
52625;BME280;38519;52.540;13.410;2023-05-01T12:15:50;100636.41;;;17.76;44.05
52625;BME280;38519;52.540;13.410;2023-05-01T12:18:16;100631.88;;;18.14;43.85
52625;BME280;38519;52.540;13.410;2023-05-01T12:20:45;100629.06;;;17.69;45.14
52625;BME280;38519;52.540;13.410;2023-05-01T12:23:13;100622.25;;;18.16;44.43
52625;BME280;38519;52.540;13.410;2023-05-01T12:25:40;100614.66;;;18.47;43.37
52625;BME280;38519;52.540;13.410;2023-05-01T12:28:11;100613.81;;;18.04;44.06
52625;BME280;38519;52.540;13.410;2023-05-01T12:30:37;100617.09;;;18.19;44.54
52625;BME280;38519;52.540;13.410;2023-05-01T12:33:07;100611.03;;;18.45;44.09
52625;BME280;38519;52.540;13.410;2023-05-01T12:35:33;100610.38;;;18.28;44.48
52625;BME280;38519;52.540;13.410;2023-05-01T12:37:58;100609.16;;;18.65;43.33
52625;BME280;38519;52.540;13.410;2023-05-01T12:40:24;100609.03;;;18.62;43.60
52625;BME280;38519;52.540;13.410;2023-05-01T12:42:53;100596.75;;;18.40;44.20
52625;BME280;38519;52.540;13.410;2023-05-01T12:45:19;100595.31;;;18.48;44.58
52625;BME280;38519;52.540;13.410;2023-05-01T12:47:44;100599.81;;;18.97;43.73
52625;BME280;38519;52.540;13.410;2023-05-01T12:50:10;100595.16;;;19.90;41.57
52625;BME280;38519;52.540;13.410;2023-05-01T12:52:35;100592.16;;;19.55;42.59
52625;BME280;38519;52.540;13.410;2023-05-01T12:55:04;100587.94;;;19.10;43.17
52625;BME280;38519;52.540;13.410;2023-05-01T12:57:30;100586.72;;;19.76;41.85
52625;BME280;38519;52.540;13.410;2023-05-01T12:59:59;100584.31;;;20.38;40.57
52625;BME280;38519;52.540;13.410;2023-05-01T13:02:29;100575.88;;;19.42;42.91
52625;BME280;38519;52.540;13.410;2023-05-01T13:05:04;100580.22;;;20.49;41.08
52625;BME280;38519;52.540;13.410;2023-05-01T13:07:30;100580.78;;;20.97;40.50
52625;BME280;38519;52.540;13.410;2023-05-01T13:09:56;100571.84;;;21.26;40.23
52625;BME280;38519;52.540;13.410;2023-05-01T13:12:22;100573.84;;;19.87;43.34
52625;BME280;38519;52.540;13.410;2023-05-01T13:14:49;100568.63;;;20.46;42.36
52625;BME280;38519;52.540;13.410;2023-05-01T13:17:25;100573.75;;;21.31;40.87